This is the latest recevied weather packets stored in our database for station/object G8PZT. If no packets are shown the sender has not sent any weather packets the latest 10 day(s).
| Time | Temp. | Humidity | Pressure | Rain* | Wind** | Luminosity | Snow |
|---|---|---|---|---|---|---|---|
| 1777294565 | 21.11° C | 21% | - | 0 mm | - | - | - |
| 1777293965 | 21.11° C | 21% | - | 0 mm | - | - | - |
| 1777293365 | 20° C | 21% | - | 0 mm | - | - | - |
| 1777292765 | 20° C | 22% | - | 0 mm | - | - | - |
| 1777292402 | 20° C | 22% | - | 0 mm | - | - | - |
| 1777292165 | 19.44° C | 22% | - | 0 mm | - | - | - |
| 1777291564 | 18.89° C | 22% | - | 0 mm | - | - | - |
| 1777291202 | 19.44° C | 21% | - | 0 mm | - | - | - |
| 1777290965 | 19.44° C | 21% | - | 0 mm | - | - | - |
| 1777290364 | 18.89° C | 23% | - | 0 mm | - | - | - |
| 1777290002 | 18.33° C | 23% | - | 0 mm | - | - | - |
| 1777289764 | 18.33° C | 23% | - | 0 mm | - | - | - |
| 1777289165 | 18.89° C | 23% | - | 0 mm | - | - | - |
| 1777288802 | 18.33° C | 24% | - | 0 mm | - | - | - |
| 1777288565 | 17.78° C | 24% | - | 0 mm | - | - | - |
| 1777287965 | 16.67° C | 27% | - | 0 mm | - | - | - |
| 1777287602 | 16.67° C | 28% | - | 0 mm | - | - | - |
| 1777287365 | 16.11° C | 27% | - | 0 mm | - | - | - |
| 1777286765 | 18.33° C | 24% | - | 0 mm | - | - | - |
| 1777286402 | 17.78° C | 25% | - | 0 mm | - | - | - |
| 1777286165 | 17.22° C | 26% | - | 0 mm | - | - | - |
| 1777285565 | 17.22° C | 23% | - | 0 mm | - | - | - |
| 1777285202 | 17.78° C | 24% | - | 0 mm | - | - | - |
| 1777284365 | 17.78° C | 25% | - | 0 mm | - | - | - |
| 1777284002 | 17.22° C | 26% | - | 0 mm | - | - | - |
* Rain latest hour (hover to see other rain measurements)
** Current wind speed in m/s (hover to see current wind gust speed)